sensor_id;sensor_type;location;lat;lon;timestamp;pressure;altitude;pressure_sealevel;temperature
80537;BMP280;69867;47.074;15.404;2023-08-31T00:01:30;96888.53;;;15.24
80537;BMP280;69867;47.074;15.404;2023-08-31T00:03:56;96896.38;;;15.24
80537;BMP280;69867;47.074;15.404;2023-08-31T00:06:21;96896.69;;;15.18
80537;BMP280;69867;47.074;15.404;2023-08-31T00:08:47;96895.19;;;15.14
80537;BMP280;69867;47.074;15.404;2023-08-31T00:11:12;96890.25;;;15.08
80537;BMP280;69867;47.074;15.404;2023-08-31T00:13:38;96900.66;;;15.09
80537;BMP280;69867;47.074;15.404;2023-08-31T00:16:03;96894.66;;;15.07
80537;BMP280;69867;47.074;15.404;2023-08-31T00:18:29;96897.19;;;15.09
80537;BMP280;69867;47.074;15.404;2023-08-31T00:20:54;96901.88;;;15.02
80537;BMP280;69867;47.074;15.404;2023-08-31T00:23:20;96895.81;;;15.01
80537;BMP280;69867;47.074;15.404;2023-08-31T00:25:46;96896.81;;;14.99
80537;BMP280;69867;47.074;15.404;2023-08-31T00:28:12;96899.50;;;14.97
80537;BMP280;69867;47.074;15.404;2023-08-31T00:30:37;96895.53;;;14.90
80537;BMP280;69867;47.074;15.404;2023-08-31T00:33:02;96890.59;;;14.84
80537;BMP280;69867;47.074;15.404;2023-08-31T00:35:28;96891.69;;;14.80
80537;BMP280;69867;47.074;15.404;2023-08-31T00:37:55;96898.94;;;14.75
80537;BMP280;69867;47.074;15.404;2023-08-31T00:40:20;96892.25;;;14.69
80537;BMP280;69867;47.074;15.404;2023-08-31T00:42:45;96893.47;;;14.62
80537;BMP280;69867;47.074;15.404;2023-08-31T00:45:11;96894.53;;;14.58
80537;BMP280;69867;47.074;15.404;2023-08-31T00:47:36;96889.53;;;14.54
80537;BMP280;69867;47.074;15.404;2023-08-31T00:50:02;96891.41;;;14.52
80537;BMP280;69867;47.074;15.404;2023-08-31T00:52:27;96894.25;;;14.47
80537;BMP280;69867;47.074;15.404;2023-08-31T00:54:54;96895.09;;;14.48
80537;BMP280;69867;47.074;15.404;2023-08-31T00:57:19;96892.47;;;14.48
80537;BMP280;69867;47.074;15.404;2023-08-31T00:59:44;96899.63;;;14.44
80537;BMP280;69867;47.074;15.404;2023-08-31T01:02:19;96897.13;;;14.41
80537;BMP280;69867;47.074;15.404;2023-08-31T01:05:10;96904.00;;;14.44
80537;BMP280;69867;47.074;15.404;2023-08-31T01:07:57;96910.41;;;14.36
80537;BMP280;69867;47.074;15.404;2023-08-31T01:13:24;96912.41;;;14.31
80537;BMP280;69867;47.074;15.404;2023-08-31T01:15:54;96913.25;;;14.32
80537;BMP280;69867;47.074;15.404;2023-08-31T01:18:22;96915.94;;;14.30
80537;BMP280;69867;47.074;15.404;2023-08-31T01:21:12;96911.91;;;14.23
80537;BMP280;69867;47.074;15.404;2023-08-31T01:23:54;96909.28;;;14.23
80537;BMP280;69867;47.074;15.404;2023-08-31T01:26:20;96913.38;;;14.29
80537;BMP280;69867;47.074;15.404;2023-08-31T01:28:47;96915.03;;;14.31
80537;BMP280;69867;47.074;15.404;2023-08-31T01:31:14;96917.75;;;14.28
80537;BMP280;69867;47.074;15.404;2023-08-31T01:33:40;96912.97;;;14.19
80537;BMP280;69867;47.074;15.404;2023-08-31T01:36:10;96912.19;;;14.17
80537;BMP280;69867;47.074;15.404;2023-08-31T01:38:42;96918.81;;;14.24
80537;BMP280;69867;47.074;15.404;2023-08-31T01:41:10;96918.69;;;14.27
80537;BMP280;69867;47.074;15.404;2023-08-31T01:43:40;96922.13;;;14.28
80537;BMP280;69867;47.074;15.404;2023-08-31T01:46:06;96917.69;;;14.30
80537;BMP280;69867;47.074;15.404;2023-08-31T01:48:40;96916.72;;;14.32
80537;BMP280;69867;47.074;15.404;2023-08-31T01:51:07;96913.94;;;14.35
80537;BMP280;69867;47.074;15.404;2023-08-31T01:53:32;96919.94;;;14.37
80537;BMP280;69867;47.074;15.404;2023-08-31T01:55:58;96923.78;;;14.30
80537;BMP280;69867;47.074;15.404;2023-08-31T01:58:23;96927.16;;;14.32
80537;BMP280;69867;47.074;15.404;2023-08-31T02:00:49;96923.91;;;14.27
80537;BMP280;69867;47.074;15.404;2023-08-31T02:03:14;96925.59;;;14.28
80537;BMP280;69867;47.074;15.404;2023-08-31T02:05:39;96925.53;;;14.30
80537;BMP280;69867;47.074;15.404;2023-08-31T02:08:05;96921.19;;;14.30
80537;BMP280;69867;47.074;15.404;2023-08-31T02:10:30;96925.41;;;14.33
80537;BMP280;69867;47.074;15.404;2023-08-31T02:12:56;96923.72;;;14.32
80537;BMP280;69867;47.074;15.404;2023-08-31T02:15:21;96927.38;;;14.28
80537;BMP280;69867;47.074;15.404;2023-08-31T02:17:46;96930.06;;;14.26
80537;BMP280;69867;47.074;15.404;2023-08-31T02:20:12;96937.13;;;14.24
80537;BMP280;69867;47.074;15.404;2023-08-31T02:22:37;96938.03;;;14.23
80537;BMP280;69867;47.074;15.404;2023-08-31T02:25:03;96938.97;;;14.22
80537;BMP280;69867;47.074;15.404;2023-08-31T02:27:28;96939.19;;;14.18
80537;BMP280;69867;47.074;15.404;2023-08-31T02:29:54;96943.56;;;14.17
80537;BMP280;69867;47.074;15.404;2023-08-31T02:32:19;96945.09;;;14.21
80537;BMP280;69867;47.074;15.404;2023-08-31T02:34:45;96948.56;;;14.22
80537;BMP280;69867;47.074;15.404;2023-08-31T02:37:10;96949.56;;;14.19
80537;BMP280;69867;47.074;15.404;2023-08-31T02:39:36;96948.78;;;14.17
80537;BMP280;69867;47.074;15.404;2023-08-31T02:42:01;96953.09;;;14.18
80537;BMP280;69867;47.074;15.404;2023-08-31T02:44:26;96952.03;;;14.22
80537;BMP280;69867;47.074;15.404;2023-08-31T02:46:52;96964.25;;;14.22
80537;BMP280;69867;47.074;15.404;2023-08-31T02:49:17;96955.69;;;14.18
80537;BMP280;69867;47.074;15.404;2023-08-31T02:51:43;96954.00;;;14.17
80537;BMP280;69867;47.074;15.404;2023-08-31T02:54:08;96959.94;;;14.21
80537;BMP280;69867;47.074;15.404;2023-08-31T02:56:33;96956.41;;;14.22
80537;BMP280;69867;47.074;15.404;2023-08-31T02:58:59;96952.72;;;14.26
80537;BMP280;69867;47.074;15.404;2023-08-31T03:01:24;96955.16;;;14.30
80537;BMP280;69867;47.074;15.404;2023-08-31T03:03:50;96963.00;;;14.30
80537;BMP280;69867;47.074;15.404;2023-08-31T03:06:15;96963.75;;;14.32
80537;BMP280;69867;47.074;15.404;2023-08-31T03:08:41;96955.00;;;14.33
80537;BMP280;69867;47.074;15.404;2023-08-31T03:11:06;96956.53;;;14.37
80537;BMP280;69867;47.074;15.404;2023-08-31T03:13:33;96960.78;;;14.40
80537;BMP280;69867;47.074;15.404;2023-08-31T03:15:59;96959.81;;;14.43
80537;BMP280;69867;47.074;15.404;2023-08-31T03:18:25;96957.97;;;14.45
80537;BMP280;69867;47.074;15.404;2023-08-31T03:20:50;96957.97;;;14.45
80537;BMP280;69867;47.074;15.404;2023-08-31T03:23:16;96965.03;;;14.43
80537;BMP280;69867;47.074;15.404;2023-08-31T03:25:41;96961.06;;;14.34
80537;BMP280;69867;47.074;15.404;2023-08-31T03:28:07;96970.69;;;14.33
80537;BMP280;69867;47.074;15.404;2023-08-31T03:30:32;96959.38;;;14.33
80537;BMP280;69867;47.074;15.404;2023-08-31T03:32:58;96974.63;;;14.23
80537;BMP280;69867;47.074;15.404;2023-08-31T03:35:24;96977.94;;;14.27
80537;BMP280;69867;47.074;15.404;2023-08-31T03:37:50;96975.69;;;14.19
80537;BMP280;69867;47.074;15.404;2023-08-31T03:40:15;96975.06;;;14.14
80537;BMP280;69867;47.074;15.404;2023-08-31T03:42:41;96984.50;;;14.17
80537;BMP280;69867;47.074;15.404;2023-08-31T03:45:06;96981.19;;;14.13
80537;BMP280;69867;47.074;15.404;2023-08-31T03:47:32;96980.13;;;14.17
80537;BMP280;69867;47.074;15.404;2023-08-31T03:49:57;96980.97;;;14.18
80537;BMP280;69867;47.074;15.404;2023-08-31T03:52:23;96982.97;;;14.13
80537;BMP280;69867;47.074;15.404;2023-08-31T03:54:48;96983.81;;;14.13
80537;BMP280;69867;47.074;15.404;2023-08-31T03:57:13;96981.97;;;14.15
80537;BMP280;69867;47.074;15.404;2023-08-31T03:59:39;96983.53;;;14.19
80537;BMP280;69867;47.074;15.404;2023-08-31T04:02:04;96982.13;;;14.12
80537;BMP280;69867;47.074;15.404;2023-08-31T04:04:29;96988.06;;;14.16
80537;BMP280;69867;47.074;15.404;2023-08-31T04:06:55;96983.53;;;14.19
80537;BMP280;69867;47.074;15.404;2023-08-31T04:09:20;96978.53;;;14.15
80537;BMP280;69867;47.074;15.404;2023-08-31T04:11:46;96983.66;;;14.16
80537;BMP280;69867;47.074;15.404;2023-08-31T04:14:12;96988.06;;;14.16
80537;BMP280;69867;47.074;15.404;2023-08-31T04:16:37;96996.72;;;14.16
80537;BMP280;69867;47.074;15.404;2023-08-31T04:19:02;96995.13;;;14.14
80537;BMP280;69867;47.074;15.404;2023-08-31T04:21:28;96998.66;;;14.13
80537;BMP280;69867;47.074;15.404;2023-08-31T04:23:53;97005.00;;;14.07
80537;BMP280;69867;47.074;15.404;2023-08-31T04:26:19;97006.13;;;14.01
80537;BMP280;69867;47.074;15.404;2023-08-31T04:28:44;97009.38;;;14.06
80537;BMP280;69867;47.074;15.404;2023-08-31T04:31:09;97015.31;;;14.10
80537;BMP280;69867;47.074;15.404;2023-08-31T04:33:38;97011.78;;;14.11
80537;BMP280;69867;47.074;15.404;2023-08-31T04:36:04;97008.19;;;14.14
80537;BMP280;69867;47.074;15.404;2023-08-31T04:38:34;97019.53;;;14.13
80537;BMP280;69867;47.074;15.404;2023-08-31T04:41:00;97013.19;;;14.18
80537;BMP280;69867;47.074;15.404;2023-08-31T04:43:26;97018.19;;;14.23
80537;BMP280;69867;47.074;15.404;2023-08-31T04:45:52;97017.97;;;14.27
80537;BMP280;69867;47.074;15.404;2023-08-31T04:48:18;97019.50;;;14.33
80537;BMP280;69867;47.074;15.404;2023-08-31T04:50:43;97021.25;;;14.32
80537;BMP280;69867;47.074;15.404;2023-08-31T04:53:08;97024.44;;;14.39
80537;BMP280;69867;47.074;15.404;2023-08-31T04:55:34;97025.34;;;14.38
80537;BMP280;69867;47.074;15.404;2023-08-31T04:57:59;97025.16;;;14.43
80537;BMP280;69867;47.074;15.404;2023-08-31T05:00:25;97027.81;;;14.41
80537;BMP280;69867;47.074;15.404;2023-08-31T05:02:50;97038.09;;;14.46
80537;BMP280;69867;47.074;15.404;2023-08-31T05:05:16;97038.50;;;14.55
80537;BMP280;69867;47.074;15.404;2023-08-31T05:07:41;97044.34;;;14.60
80537;BMP280;69867;47.074;15.404;2023-08-31T05:10:07;97049.09;;;14.52
80537;BMP280;69867;47.074;15.404;2023-08-31T05:12:33;97045.16;;;14.44
80537;BMP280;69867;47.074;15.404;2023-08-31T05:14:58;97048.53;;;14.46
80537;BMP280;69867;47.074;15.404;2023-08-31T05:17:24;97045.84;;;14.47
80537;BMP280;69867;47.074;15.404;2023-08-31T05:19:49;97053.66;;;14.66
80537;BMP280;69867;47.074;15.404;2023-08-31T05:22:14;97059.53;;;14.71
80537;BMP280;69867;47.074;15.404;2023-08-31T05:24:40;97066.59;;;14.69
80537;BMP280;69867;47.074;15.404;2023-08-31T05:27:05;97059.72;;;15.02
80537;BMP280;69867;47.074;15.404;2023-08-31T05:29:31;97063.66;;;15.46
80537;BMP280;69867;47.074;15.404;2023-08-31T05:31:56;97063.50;;;15.83
80537;BMP280;69867;47.074;15.404;2023-08-31T05:34:21;97061.69;;;16.17
80537;BMP280;69867;47.074;15.404;2023-08-31T05:36:47;97066.38;;;16.43
80537;BMP280;69867;47.074;15.404;2023-08-31T05:39:12;97063.31;;;16.51
80537;BMP280;69867;47.074;15.404;2023-08-31T05:41:40;97063.75;;;16.59
80537;BMP280;69867;47.074;15.404;2023-08-31T05:44:06;97073.22;;;16.46
80537;BMP280;69867;47.074;15.404;2023-08-31T05:46:31;97072.88;;;17.15
80537;BMP280;69867;47.074;15.404;2023-08-31T05:48:57;97066.38;;;17.80
80537;BMP280;69867;47.074;15.404;2023-08-31T05:51:22;97062.56;;;18.29
80537;BMP280;69867;47.074;15.404;2023-08-31T05:53:47;97062.28;;;18.74
80537;BMP280;69867;47.074;15.404;2023-08-31T05:56:13;97059.81;;;18.85
80537;BMP280;69867;47.074;15.404;2023-08-31T05:58:38;97063.25;;;18.73
80537;BMP280;69867;47.074;15.404;2023-08-31T06:01:04;97063.44;;;18.70
80537;BMP280;69867;47.074;15.404;2023-08-31T06:03:30;97071.53;;;18.53
80537;BMP280;69867;47.074;15.404;2023-08-31T06:05:56;97066.59;;;18.34
80537;BMP280;69867;47.074;15.404;2023-08-31T06:08:22;97070.91;;;18.21
80537;BMP280;69867;47.074;15.404;2023-08-31T06:10:47;97077.78;;;17.65
80537;BMP280;69867;47.074;15.404;2023-08-31T06:13:13;97076.28;;;17.61
80537;BMP280;69867;47.074;15.404;2023-08-31T06:15:38;97082.91;;;17.52
80537;BMP280;69867;47.074;15.404;2023-08-31T06:18:05;97080.81;;;17.73
80537;BMP280;69867;47.074;15.404;2023-08-31T06:20:33;97085.63;;;17.95
80537;BMP280;69867;47.074;15.404;2023-08-31T06:22:59;97088.91;;;18.13
80537;BMP280;69867;47.074;15.404;2023-08-31T06:25:25;97087.34;;;18.25
80537;BMP280;69867;47.074;15.404;2023-08-31T06:27:50;97093.38;;;18.27
80537;BMP280;69867;47.074;15.404;2023-08-31T06:30:17;97093.72;;;18.35
80537;BMP280;69867;47.074;15.404;2023-08-31T06:32:46;97095.41;;;18.36
80537;BMP280;69867;47.074;15.404;2023-08-31T06:35:12;97097.97;;;18.37
80537;BMP280;69867;47.074;15.404;2023-08-31T06:37:39;97096.72;;;18.43
80537;BMP280;69867;47.074;15.404;2023-08-31T06:40:08;97100.03;;;18.32
80537;BMP280;69867;47.074;15.404;2023-08-31T06:42:37;97100.94;;;18.03
80537;BMP280;69867;47.074;15.404;2023-08-31T06:45:04;97098.13;;;18.06
80537;BMP280;69867;47.074;15.404;2023-08-31T06:47:29;97099.53;;;17.97
80537;BMP280;69867;47.074;15.404;2023-08-31T06:49:55;97108.44;;;18.09
80537;BMP280;69867;47.074;15.404;2023-08-31T06:52:20;97110.84;;;18.28
80537;BMP280;69867;47.074;15.404;2023-08-31T06:54:45;97107.06;;;18.46
80537;BMP280;69867;47.074;15.404;2023-08-31T06:57:11;97114.09;;;18.45
80537;BMP280;69867;47.074;15.404;2023-08-31T06:59:36;97115.31;;;18.68
80537;BMP280;69867;47.074;15.404;2023-08-31T07:02:02;97112.75;;;18.81
80537;BMP280;69867;47.074;15.404;2023-08-31T07:04:27;97116.16;;;18.69
80537;BMP280;69867;47.074;15.404;2023-08-31T07:06:53;97113.75;;;18.93
80537;BMP280;69867;47.074;15.404;2023-08-31T07:09:18;97111.81;;;19.09
80537;BMP280;69867;47.074;15.404;2023-08-31T07:11:43;97107.81;;;19.03
80537;BMP280;69867;47.074;15.404;2023-08-31T07:14:09;97107.44;;;19.22
80537;BMP280;69867;47.074;15.404;2023-08-31T07:16:34;97102.44;;;19.44
80537;BMP280;69867;47.074;15.404;2023-08-31T07:19:00;97102.84;;;19.38
80537;BMP280;69867;47.074;15.404;2023-08-31T07:21:25;97101.56;;;19.31
80537;BMP280;69867;47.074;15.404;2023-08-31T07:23:50;97100.03;;;19.94
80537;BMP280;69867;47.074;15.404;2023-08-31T07:26:16;97101.81;;;20.31
80537;BMP280;69867;47.074;15.404;2023-08-31T07:28:41;97100.31;;;20.65
80537;BMP280;69867;47.074;15.404;2023-08-31T07:31:07;97105.38;;;21.05
80537;BMP280;69867;47.074;15.404;2023-08-31T07:33:33;97100.47;;;21.24
80537;BMP280;69867;47.074;15.404;2023-08-31T07:35:59;97104.06;;;21.23
80537;BMP280;69867;47.074;15.404;2023-08-31T07:38:25;97103.28;;;21.21
80537;BMP280;69867;47.074;15.404;2023-08-31T07:40:50;97105.72;;;21.00
80537;BMP280;69867;47.074;15.404;2023-08-31T07:43:16;97115.00;;;21.06
80537;BMP280;69867;47.074;15.404;2023-08-31T07:45:41;97115.66;;;20.97
80537;BMP280;69867;47.074;15.404;2023-08-31T07:48:07;97121.41;;;20.65
80537;BMP280;69867;47.074;15.404;2023-08-31T07:50:33;97120.03;;;20.85
80537;BMP280;69867;47.074;15.404;2023-08-31T07:52:58;97127.50;;;20.78
80537;BMP280;69867;47.074;15.404;2023-08-31T07:55:24;97131.44;;;20.73
80537;BMP280;69867;47.074;15.404;2023-08-31T07:57:49;97130.47;;;20.74
80537;BMP280;69867;47.074;15.404;2023-08-31T08:00:14;97123.84;;;20.68
80537;BMP280;69867;47.074;15.404;2023-08-31T08:02:40;97129.63;;;20.73
80537;BMP280;69867;47.074;15.404;2023-08-31T08:05:06;97135.78;;;20.61
80537;BMP280;69867;47.074;15.404;2023-08-31T08:07:31;97131.47;;;20.60
80537;BMP280;69867;47.074;15.404;2023-08-31T08:09:57;97135.06;;;20.47
80537;BMP280;69867;47.074;15.404;2023-08-31T08:12:22;97138.22;;;20.64
80537;BMP280;69867;47.074;15.404;2023-08-31T08:14:47;97146.47;;;20.47
80537;BMP280;69867;47.074;15.404;2023-08-31T08:17:13;97148.47;;;20.31
80537;BMP280;69867;47.074;15.404;2023-08-31T08:19:38;97151.75;;;20.22
80537;BMP280;69867;47.074;15.404;2023-08-31T08:22:04;97149.63;;;20.27
80537;BMP280;69867;47.074;15.404;2023-08-31T08:24:29;97155.53;;;20.30
80537;BMP280;69867;47.074;15.404;2023-08-31T08:26:55;97156.38;;;20.31
80537;BMP280;69867;47.074;15.404;2023-08-31T08:29:20;97154.94;;;20.39
80537;BMP280;69867;47.074;15.404;2023-08-31T08:31:45;97154.28;;;20.49
80537;BMP280;69867;47.074;15.404;2023-08-31T08:34:11;97157.44;;;20.54
80537;BMP280;69867;47.074;15.404;2023-08-31T08:36:36;97161.44;;;20.34
80537;BMP280;69867;47.074;15.404;2023-08-31T08:39:02;97166.00;;;20.57
80537;BMP280;69867;47.074;15.404;2023-08-31T08:41:28;97154.50;;;20.58
80537;BMP280;69867;47.074;15.404;2023-08-31T08:43:57;97163.34;;;20.57
80537;BMP280;69867;47.074;15.404;2023-08-31T08:46:27;97155.53;;;20.68
80537;BMP280;69867;47.074;15.404;2023-08-31T08:48:53;97161.94;;;20.77
80537;BMP280;69867;47.074;15.404;2023-08-31T08:51:20;97162.91;;;20.89
80537;BMP280;69867;47.074;15.404;2023-08-31T08:53:46;97171.22;;;20.95
80537;BMP280;69867;47.074;15.404;2023-08-31T08:56:12;97165.72;;;20.98
80537;BMP280;69867;47.074;15.404;2023-08-31T08:58:38;97169.47;;;20.70
80537;BMP280;69867;47.074;15.404;2023-08-31T09:01:04;97171.16;;;20.84
80537;BMP280;69867;47.074;15.404;2023-08-31T09:03:32;97172.06;;;20.96
80537;BMP280;69867;47.074;15.404;2023-08-31T09:05:59;97178.84;;;21.00
80537;BMP280;69867;47.074;15.404;2023-08-31T09:08:28;97174.44;;;20.88
80537;BMP280;69867;47.074;15.404;2023-08-31T09:10:56;97170.69;;;21.03
80537;BMP280;69867;47.074;15.404;2023-08-31T09:13:26;97174.97;;;21.17
80537;BMP280;69867;47.074;15.404;2023-08-31T09:15:52;97180.78;;;21.22
80537;BMP280;69867;47.074;15.404;2023-08-31T09:18:27;97180.75;;;21.34
80537;BMP280;69867;47.074;15.404;2023-08-31T09:20:53;97173.19;;;21.65
80537;BMP280;69867;47.074;15.404;2023-08-31T09:23:19;97172.81;;;21.58
80537;BMP280;69867;47.074;15.404;2023-08-31T09:25:52;97171.97;;;22.17
80537;BMP280;69867;47.074;15.404;2023-08-31T09:28:26;97173.59;;;22.64
80537;BMP280;69867;47.074;15.404;2023-08-31T09:30:53;97180.94;;;22.94
80537;BMP280;69867;47.074;15.404;2023-08-31T09:33:26;97175.38;;;23.08
80537;BMP280;69867;47.074;15.404;2023-08-31T09:35:59;97180.91;;;23.16
80537;BMP280;69867;47.074;15.404;2023-08-31T09:38:25;97176.69;;;23.14
80537;BMP280;69867;47.074;15.404;2023-08-31T09:40:50;97186.69;;;23.10
80537;BMP280;69867;47.074;15.404;2023-08-31T09:43:23;97184.31;;;22.96
80537;BMP280;69867;47.074;15.404;2023-08-31T09:45:49;97188.66;;;22.86
80537;BMP280;69867;47.074;15.404;2023-08-31T09:48:16;97189.88;;;22.82
80537;BMP280;69867;47.074;15.404;2023-08-31T09:50:44;97179.84;;;22.74
80537;BMP280;69867;47.074;15.404;2023-08-31T09:53:10;97179.84;;;22.74
80537;BMP280;69867;47.074;15.404;2023-08-31T09:55:39;97173.44;;;22.21
80537;BMP280;69867;47.074;15.404;2023-08-31T09:58:06;97184.63;;;22.00
80537;BMP280;69867;47.074;15.404;2023-08-31T10:00:32;97181.31;;;22.10
80537;BMP280;69867;47.074;15.404;2023-08-31T10:03:03;97174.84;;;22.14
80537;BMP280;69867;47.074;15.404;2023-08-31T10:05:29;97178.22;;;22.16
80537;BMP280;69867;47.074;15.404;2023-08-31T10:07:54;97174.75;;;22.15
80537;BMP280;69867;47.074;15.404;2023-08-31T10:10:21;97171.84;;;22.18
80537;BMP280;69867;47.074;15.404;2023-08-31T10:12:48;97171.53;;;22.34
80537;BMP280;69867;47.074;15.404;2023-08-31T10:15:14;97179.84;;;22.52
80537;BMP280;69867;47.074;15.404;2023-08-31T10:17:40;97181.16;;;22.68
80537;BMP280;69867;47.074;15.404;2023-08-31T10:20:07;97175.78;;;22.81
80537;BMP280;69867;47.074;15.404;2023-08-31T10:22:33;97176.50;;;22.83
80537;BMP280;69867;47.074;15.404;2023-08-31T10:25:03;97185.03;;;22.87
80537;BMP280;69867;47.074;15.404;2023-08-31T10:27:42;97188.38;;;23.11
80537;BMP280;69867;47.074;15.404;2023-08-31T10:32:39;97177.41;;;23.27
80537;BMP280;69867;47.074;15.404;2023-08-31T10:35:07;97185.09;;;23.41
80537;BMP280;69867;47.074;15.404;2023-08-31T10:37:33;97183.50;;;23.39
80537;BMP280;69867;47.074;15.404;2023-08-31T10:40:09;97190.41;;;23.41
80537;BMP280;69867;47.074;15.404;2023-08-31T10:43:14;97180.13;;;23.37
80537;BMP280;69867;47.074;15.404;2023-08-31T10:45:45;97172.94;;;23.27
80537;BMP280;69867;47.074;15.404;2023-08-31T10:48:11;97182.06;;;23.35
80537;BMP280;69867;47.074;15.404;2023-08-31T10:50:42;97178.22;;;23.50
80537;BMP280;69867;47.074;15.404;2023-08-31T10:53:09;97167.47;;;23.63
80537;BMP280;69867;47.074;15.404;2023-08-31T10:55:34;97179.38;;;23.68
80537;BMP280;69867;47.074;15.404;2023-08-31T10:58:09;97160.69;;;23.70
80537;BMP280;69867;47.074;15.404;2023-08-31T11:00:50;97161.31;;;23.62
80537;BMP280;69867;47.074;15.404;2023-08-31T11:03:16;97153.31;;;23.73
80537;BMP280;69867;47.074;15.404;2023-08-31T11:05:54;97155.00;;;23.95
80537;BMP280;69867;47.074;15.404;2023-08-31T11:08:25;97150.47;;;24.07
80537;BMP280;69867;47.074;15.404;2023-08-31T11:10:52;97153.63;;;24.21
80537;BMP280;69867;47.074;15.404;2023-08-31T11:13:20;97149.88;;;24.03
80537;BMP280;69867;47.074;15.404;2023-08-31T11:15:46;97146.53;;;24.01
80537;BMP280;69867;47.074;15.404;2023-08-31T11:18:12;97143.16;;;24.20
80537;BMP280;69867;47.074;15.404;2023-08-31T11:20:38;97144.06;;;24.09
80537;BMP280;69867;47.074;15.404;2023-08-31T11:23:03;97142.91;;;23.81
80537;BMP280;69867;47.074;15.404;2023-08-31T11:25:32;97143.28;;;23.77
80537;BMP280;69867;47.074;15.404;2023-08-31T11:28:08;97137.38;;;23.73
80537;BMP280;69867;47.074;15.404;2023-08-31T11:30:34;97137.47;;;23.83
80537;BMP280;69867;47.074;15.404;2023-08-31T11:33:07;97132.81;;;23.96
80537;BMP280;69867;47.074;15.404;2023-08-31T11:35:37;97134.47;;;24.18
80537;BMP280;69867;47.074;15.404;2023-08-31T11:38:03;97136.59;;;24.24
80537;BMP280;69867;47.074;15.404;2023-08-31T11:40:29;97133.31;;;24.32
80537;BMP280;69867;47.074;15.404;2023-08-31T11:42:54;97143.69;;;24.35
80537;BMP280;69867;47.074;15.404;2023-08-31T11:45:21;97134.78;;;24.45
80537;BMP280;69867;47.074;15.404;2023-08-31T11:47:48;97137.13;;;24.69
80537;BMP280;69867;47.074;15.404;2023-08-31T11:50:15;97140.75;;;24.68
80537;BMP280;69867;47.074;15.404;2023-08-31T11:52:41;97144.84;;;25.03
80537;BMP280;69867;47.074;15.404;2023-08-31T11:55:14;97149.81;;;24.86
80537;BMP280;69867;47.074;15.404;2023-08-31T11:57:40;97141.69;;;24.88
80537;BMP280;69867;47.074;15.404;2023-08-31T12:00:06;97151.00;;;25.03
80537;BMP280;69867;47.074;15.404;2023-08-31T12:02:35;97147.25;;;25.15
80537;BMP280;69867;47.074;15.404;2023-08-31T12:05:00;97155.09;;;25.17
80537;BMP280;69867;47.074;15.404;2023-08-31T12:07:26;97158.88;;;25.14
80537;BMP280;69867;47.074;15.404;2023-08-31T12:09:51;97165.56;;;25.09
80537;BMP280;69867;47.074;15.404;2023-08-31T12:12:20;97161.38;;;25.06
80537;BMP280;69867;47.074;15.404;2023-08-31T12:14:46;97161.94;;;25.19
80537;BMP280;69867;47.074;15.404;2023-08-31T12:17:11;97167.13;;;25.21
80537;BMP280;69867;47.074;15.404;2023-08-31T12:19:37;97159.13;;;25.11
80537;BMP280;69867;47.074;15.404;2023-08-31T12:22:03;97153.69;;;25.23
80537;BMP280;69867;47.074;15.404;2023-08-31T12:24:28;97150.19;;;25.22
80537;BMP280;69867;47.074;15.404;2023-08-31T12:26:54;97157.03;;;25.05
80537;BMP280;69867;47.074;15.404;2023-08-31T12:29:20;97153.47;;;24.95
80537;BMP280;69867;47.074;15.404;2023-08-31T12:31:46;97153.47;;;24.95
80537;BMP280;69867;47.074;15.404;2023-08-31T12:34:11;97151.72;;;24.75
80537;BMP280;69867;47.074;15.404;2023-08-31T12:36:37;97160.84;;;24.61
80537;BMP280;69867;47.074;15.404;2023-08-31T12:39:03;97155.63;;;24.50
80537;BMP280;69867;47.074;15.404;2023-08-31T12:41:28;97160.63;;;24.43
80537;BMP280;69867;47.074;15.404;2023-08-31T12:43:54;97162.72;;;24.40
80537;BMP280;69867;47.074;15.404;2023-08-31T12:46:19;97163.34;;;24.53
80537;BMP280;69867;47.074;15.404;2023-08-31T12:48:44;97154.97;;;24.57
80537;BMP280;69867;47.074;15.404;2023-08-31T12:51:10;97157.91;;;24.54
80537;BMP280;69867;47.074;15.404;2023-08-31T12:53:38;97156.38;;;24.62
80537;BMP280;69867;47.074;15.404;2023-08-31T12:56:04;97151.03;;;24.52
80537;BMP280;69867;47.074;15.404;2023-08-31T12:58:29;97155.75;;;24.48
80537;BMP280;69867;47.074;15.404;2023-08-31T13:00:58;97155.72;;;24.39
80537;BMP280;69867;47.074;15.404;2023-08-31T13:03:26;97159.78;;;24.22
80537;BMP280;69867;47.074;15.404;2023-08-31T13:05:52;97159.75;;;24.33
80537;BMP280;69867;47.074;15.404;2023-08-31T13:08:17;97156.47;;;24.50
80537;BMP280;69867;47.074;15.404;2023-08-31T13:10:43;97158.47;;;24.58
80537;BMP280;69867;47.074;15.404;2023-08-31T13:13:09;97154.78;;;24.49
80537;BMP280;69867;47.074;15.404;2023-08-31T13:15:34;97151.25;;;24.39
80537;BMP280;69867;47.074;15.404;2023-08-31T13:18:00;97159.09;;;24.41
80537;BMP280;69867;47.074;15.404;2023-08-31T13:20:26;97151.81;;;24.43
80537;BMP280;69867;47.074;15.404;2023-08-31T13:22:51;97161.56;;;24.33
80537;BMP280;69867;47.074;15.404;2023-08-31T13:25:16;97160.56;;;24.13
80537;BMP280;69867;47.074;15.404;2023-08-31T13:27:42;97170.09;;;24.15
80537;BMP280;69867;47.074;15.404;2023-08-31T13:30:08;97162.69;;;23.98
80537;BMP280;69867;47.074;15.404;2023-08-31T13:32:34;97160.69;;;23.90
80537;BMP280;69867;47.074;15.404;2023-08-31T13:34:59;97160.03;;;23.77
80537;BMP280;69867;47.074;15.404;2023-08-31T13:37:25;97157.38;;;23.77
80537;BMP280;69867;47.074;15.404;2023-08-31T13:39:51;97166.19;;;23.78
80537;BMP280;69867;47.074;15.404;2023-08-31T13:42:16;97164.84;;;23.83
80537;BMP280;69867;47.074;15.404;2023-08-31T13:44:42;97160.50;;;23.82
80537;BMP280;69867;47.074;15.404;2023-08-31T13:47:07;97163.91;;;23.73
80537;BMP280;69867;47.074;15.404;2023-08-31T13:49:33;97158.09;;;23.79
80537;BMP280;69867;47.074;15.404;2023-08-31T13:51:59;97157.06;;;23.91
80537;BMP280;69867;47.074;15.404;2023-08-31T13:54:25;97166.91;;;24.01
80537;BMP280;69867;47.074;15.404;2023-08-31T13:56:50;97160.88;;;24.19
80537;BMP280;69867;47.074;15.404;2023-08-31T13:59:16;97154.22;;;24.25